sensor_id;sensor_type;location;lat;lon;timestamp;P1;durP1;ratioP1;P2;durP2;ratioP2
7193;SDS011;3638;48.820;9.244;2022-12-07T00:01:29;8.97;;;8.10;;
7193;SDS011;3638;48.820;9.244;2022-12-07T00:03:59;9.20;;;8.30;;
7193;SDS011;3638;48.820;9.244;2022-12-07T00:06:30;10.30;;;8.07;;
7193;SDS011;3638;48.820;9.244;2022-12-07T00:08:57;9.00;;;8.10;;
7193;SDS011;3638;48.820;9.244;2022-12-07T00:11:25;8.77;;;7.87;;
7193;SDS011;3638;48.820;9.244;2022-12-07T00:13:52;9.80;;;8.80;;
7193;SDS011;3638;48.820;9.244;2022-12-07T00:16:23;10.87;;;8.37;;
7193;SDS011;3638;48.820;9.244;2022-12-07T00:18:56;9.50;;;8.47;;
7193;SDS011;3638;48.820;9.244;2022-12-07T00:21:23;9.67;;;8.53;;
7193;SDS011;3638;48.820;9.244;2022-12-07T00:23:52;11.67;;;8.80;;
7193;SDS011;3638;48.820;9.244;2022-12-07T00:26:21;10.17;;;8.10;;
7193;SDS011;3638;48.820;9.244;2022-12-07T00:28:50;9.63;;;8.53;;
7193;SDS011;3638;48.820;9.244;2022-12-07T00:31:20;9.90;;;8.33;;
7193;SDS011;3638;48.820;9.244;2022-12-07T00:33:49;10.60;;;8.10;;
7193;SDS011;3638;48.820;9.244;2022-12-07T00:36:19;9.40;;;8.47;;
7193;SDS011;3638;48.820;9.244;2022-12-07T00:38:48;10.13;;;9.00;;
7193;SDS011;3638;48.820;9.244;2022-12-07T00:41:16;9.57;;;8.13;;
7193;SDS011;3638;48.820;9.244;2022-12-07T00:43:45;10.57;;;9.50;;
7193;SDS011;3638;48.820;9.244;2022-12-07T00:46:13;11.20;;;8.93;;
7193;SDS011;3638;48.820;9.244;2022-12-07T00:48:42;9.67;;;8.63;;
7193;SDS011;3638;48.820;9.244;2022-12-07T00:51:09;10.33;;;9.20;;
7193;SDS011;3638;48.820;9.244;2022-12-07T00:53:40;9.70;;;8.67;;
7193;SDS011;3638;48.820;9.244;2022-12-07T00:56:07;10.37;;;9.17;;
7193;SDS011;3638;48.820;9.244;2022-12-07T00:58:37;10.23;;;9.10;;
7193;SDS011;3638;48.820;9.244;2022-12-07T01:01:05;9.70;;;8.73;;
7193;SDS011;3638;48.820;9.244;2022-12-07T01:03:34;11.57;;;9.17;;
7193;SDS011;3638;48.820;9.244;2022-12-07T01:06:02;10.40;;;9.30;;
7193;SDS011;3638;48.820;9.244;2022-12-07T01:08:29;9.97;;;8.87;;
7193;SDS011;3638;48.820;9.244;2022-12-07T01:10:59;10.83;;;9.73;;
7193;SDS011;3638;48.820;9.244;2022-12-07T01:13:27;10.37;;;9.30;;
7193;SDS011;3638;48.820;9.244;2022-12-07T01:15:56;9.83;;;8.80;;
7193;SDS011;3638;48.820;9.244;2022-12-07T01:18:25;10.27;;;8.90;;
7193;SDS011;3638;48.820;9.244;2022-12-07T01:20:57;10.57;;;9.47;;
7193;SDS011;3638;48.820;9.244;2022-12-07T01:23:26;13.00;;;9.73;;
7193;SDS011;3638;48.820;9.244;2022-12-07T01:25:54;10.83;;;9.47;;
7193;SDS011;3638;48.820;9.244;2022-12-07T01:28:23;10.67;;;9.57;;
7193;SDS011;3638;48.820;9.244;2022-12-07T01:30:57;12.07;;;9.37;;
7193;SDS011;3638;48.820;9.244;2022-12-07T01:33:26;10.43;;;9.40;;
7193;SDS011;3638;48.820;9.244;2022-12-07T01:35:54;10.63;;;9.53;;
7193;SDS011;3638;48.820;9.244;2022-12-07T01:38:23;11.30;;;9.47;;
7193;SDS011;3638;48.820;9.244;2022-12-07T01:40:53;12.23;;;9.80;;
7193;SDS011;3638;48.820;9.244;2022-12-07T01:43:22;13.40;;;10.27;;
7193;SDS011;3638;48.820;9.244;2022-12-07T01:45:52;10.67;;;9.57;;
7193;SDS011;3638;48.820;9.244;2022-12-07T01:48:20;11.00;;;9.87;;
7193;SDS011;3638;48.820;9.244;2022-12-07T01:50:53;12.00;;;9.80;;
7193;SDS011;3638;48.820;9.244;2022-12-07T01:53:24;11.43;;;9.83;;
7193;SDS011;3638;48.820;9.244;2022-12-07T01:55:54;11.43;;;9.93;;
7193;SDS011;3638;48.820;9.244;2022-12-07T01:58:24;11.20;;;10.00;;
7193;SDS011;3638;48.820;9.244;2022-12-07T02:00:52;10.80;;;9.73;;
7193;SDS011;3638;48.820;9.244;2022-12-07T02:03:19;10.97;;;9.70;;
7193;SDS011;3638;48.820;9.244;2022-12-07T02:05:51;11.23;;;10.03;;
7193;SDS011;3638;48.820;9.244;2022-12-07T02:08:20;11.73;;;10.53;;
7193;SDS011;3638;48.820;9.244;2022-12-07T02:10:48;11.10;;;9.80;;
7193;SDS011;3638;48.820;9.244;2022-12-07T02:13:15;11.63;;;10.30;;
7193;SDS011;3638;48.820;9.244;2022-12-07T02:15:50;10.67;;;9.10;;
7193;SDS011;3638;48.820;9.244;2022-12-07T02:18:33;12.07;;;10.10;;
7193;SDS011;3638;48.820;9.244;2022-12-07T02:21:11;11.03;;;9.33;;
7193;SDS011;3638;48.820;9.244;2022-12-07T02:24:03;11.83;;;9.77;;
7193;SDS011;3638;48.820;9.244;2022-12-07T02:27:04;10.67;;;9.53;;
7193;SDS011;3638;48.820;9.244;2022-12-07T02:29:49;11.20;;;9.10;;
7193;SDS011;3638;48.820;9.244;2022-12-07T02:32:25;12.30;;;9.90;;
7193;SDS011;3638;48.820;9.244;2022-12-07T02:35:02;10.60;;;9.50;;
7193;SDS011;3638;48.820;9.244;2022-12-07T02:37:34;13.03;;;10.40;;
7193;SDS011;3638;48.820;9.244;2022-12-07T02:40:08;11.13;;;10.03;;
7193;SDS011;3638;48.820;9.244;2022-12-07T02:42:42;11.13;;;9.93;;
7193;SDS011;3638;48.820;9.244;2022-12-07T02:45:15;10.33;;;9.27;;
7193;SDS011;3638;48.820;9.244;2022-12-07T02:47:50;10.77;;;9.60;;
7193;SDS011;3638;48.820;9.244;2022-12-07T02:50:19;11.63;;;9.60;;
7193;SDS011;3638;48.820;9.244;2022-12-07T02:52:47;11.43;;;9.43;;
7193;SDS011;3638;48.820;9.244;2022-12-07T02:55:15;11.50;;;9.47;;
7193;SDS011;3638;48.820;9.244;2022-12-07T02:57:51;10.43;;;9.17;;
7193;SDS011;3638;48.820;9.244;2022-12-07T03:00:36;11.80;;;10.53;;
7193;SDS011;3638;48.820;9.244;2022-12-07T03:03:12;11.17;;;9.97;;
7193;SDS011;3638;48.820;9.244;2022-12-07T03:05:48;12.23;;;10.30;;
7193;SDS011;3638;48.820;9.244;2022-12-07T03:08:30;11.47;;;9.60;;
7193;SDS011;3638;48.820;9.244;2022-12-07T03:11:06;11.20;;;9.53;;
7193;SDS011;3638;48.820;9.244;2022-12-07T03:13:37;12.47;;;9.20;;
7193;SDS011;3638;48.820;9.244;2022-12-07T03:16:14;11.40;;;9.63;;
7193;SDS011;3638;48.820;9.244;2022-12-07T03:18:44;10.90;;;9.40;;
7193;SDS011;3638;48.820;9.244;2022-12-07T03:21:16;11.17;;;9.97;;
7193;SDS011;3638;48.820;9.244;2022-12-07T03:23:48;10.60;;;9.40;;
7193;SDS011;3638;48.820;9.244;2022-12-07T03:26:19;11.30;;;9.43;;
7193;SDS011;3638;48.820;9.244;2022-12-07T03:28:52;10.93;;;9.73;;
7193;SDS011;3638;48.820;9.244;2022-12-07T03:31:23;13.17;;;8.93;;
7193;SDS011;3638;48.820;9.244;2022-12-07T03:33:57;11.07;;;9.60;;
7193;SDS011;3638;48.820;9.244;2022-12-07T03:36:35;12.37;;;10.53;;
7193;SDS011;3638;48.820;9.244;2022-12-07T03:39:11;13.60;;;11.03;;
7193;SDS011;3638;48.820;9.244;2022-12-07T03:41:44;13.00;;;11.17;;
7193;SDS011;3638;48.820;9.244;2022-12-07T03:44:11;12.77;;;10.67;;
7193;SDS011;3638;48.820;9.244;2022-12-07T03:46:43;12.13;;;9.67;;
7193;SDS011;3638;48.820;9.244;2022-12-07T03:49:16;11.60;;;10.40;;
7193;SDS011;3638;48.820;9.244;2022-12-07T03:51:51;11.03;;;9.60;;
7193;SDS011;3638;48.820;9.244;2022-12-07T03:54:23;12.20;;;9.97;;
7193;SDS011;3638;48.820;9.244;2022-12-07T03:56:56;11.13;;;9.80;;
7193;SDS011;3638;48.820;9.244;2022-12-07T03:59:25;10.40;;;9.30;;
7193;SDS011;3638;48.820;9.244;2022-12-07T04:01:54;10.97;;;9.80;;
7193;SDS011;3638;48.820;9.244;2022-12-07T04:04:24;11.67;;;9.73;;
7193;SDS011;3638;48.820;9.244;2022-12-07T04:06:51;12.00;;;9.67;;
7193;SDS011;3638;48.820;9.244;2022-12-07T04:09:20;11.73;;;9.50;;
7193;SDS011;3638;48.820;9.244;2022-12-07T04:11:50;11.63;;;9.80;;
7193;SDS011;3638;48.820;9.244;2022-12-07T04:14:17;11.13;;;9.57;;
7193;SDS011;3638;48.820;9.244;2022-12-07T04:16:44;11.17;;;9.83;;
7193;SDS011;3638;48.820;9.244;2022-12-07T04:19:13;11.87;;;9.87;;
7193;SDS011;3638;48.820;9.244;2022-12-07T04:21:40;12.30;;;10.37;;
7193;SDS011;3638;48.820;9.244;2022-12-07T04:24:07;12.23;;;10.20;;
7193;SDS011;3638;48.820;9.244;2022-12-07T04:26:34;12.53;;;10.43;;
7193;SDS011;3638;48.820;9.244;2022-12-07T04:29:02;12.57;;;10.33;;
7193;SDS011;3638;48.820;9.244;2022-12-07T04:31:29;11.87;;;9.80;;
7193;SDS011;3638;48.820;9.244;2022-12-07T04:33:55;13.13;;;10.60;;
7193;SDS011;3638;48.820;9.244;2022-12-07T04:36:24;12.57;;;10.10;;
7193;SDS011;3638;48.820;9.244;2022-12-07T04:38:52;12.47;;;10.60;;
7193;SDS011;3638;48.820;9.244;2022-12-07T04:41:20;12.03;;;10.17;;
7193;SDS011;3638;48.820;9.244;2022-12-07T04:43:52;12.87;;;10.70;;
7193;SDS011;3638;48.820;9.244;2022-12-07T04:46:20;12.13;;;10.30;;
7193;SDS011;3638;48.820;9.244;2022-12-07T04:48:47;12.93;;;10.20;;
7193;SDS011;3638;48.820;9.244;2022-12-07T04:51:14;12.63;;;10.47;;
7193;SDS011;3638;48.820;9.244;2022-12-07T04:53:46;14.50;;;10.67;;
7193;SDS011;3638;48.820;9.244;2022-12-07T04:56:14;11.03;;;9.70;;
7193;SDS011;3638;48.820;9.244;2022-12-07T04:58:42;12.20;;;9.67;;
7193;SDS011;3638;48.820;9.244;2022-12-07T05:01:10;11.63;;;9.77;;
7193;SDS011;3638;48.820;9.244;2022-12-07T05:03:38;11.93;;;9.20;;
7193;SDS011;3638;48.820;9.244;2022-12-07T05:06:05;10.43;;;9.30;;
7193;SDS011;3638;48.820;9.244;2022-12-07T05:08:33;12.47;;;9.57;;
7193;SDS011;3638;48.820;9.244;2022-12-07T05:11:02;11.63;;;8.80;;
7193;SDS011;3638;48.820;9.244;2022-12-07T05:13:31;10.23;;;9.13;;
7193;SDS011;3638;48.820;9.244;2022-12-07T05:15:59;9.97;;;8.80;;
7193;SDS011;3638;48.820;9.244;2022-12-07T05:18:26;11.33;;;9.03;;
7193;SDS011;3638;48.820;9.244;2022-12-07T05:20:53;10.67;;;9.40;;
7193;SDS011;3638;48.820;9.244;2022-12-07T05:23:20;13.10;;;10.77;;
7193;SDS011;3638;48.820;9.244;2022-12-07T05:25:46;11.37;;;9.83;;
7193;SDS011;3638;48.820;9.244;2022-12-07T05:28:15;13.07;;;10.43;;
7193;SDS011;3638;48.820;9.244;2022-12-07T05:30:42;13.03;;;10.73;;
7193;SDS011;3638;48.820;9.244;2022-12-07T05:33:09;13.60;;;11.13;;
7193;SDS011;3638;48.820;9.244;2022-12-07T05:35:35;13.37;;;10.97;;
7193;SDS011;3638;48.820;9.244;2022-12-07T05:38:03;14.33;;;11.93;;
7193;SDS011;3638;48.820;9.244;2022-12-07T05:40:29;14.53;;;11.03;;
7193;SDS011;3638;48.820;9.244;2022-12-07T05:42:56;16.70;;;11.33;;
7193;SDS011;3638;48.820;9.244;2022-12-07T05:45:25;13.30;;;11.10;;
7193;SDS011;3638;48.820;9.244;2022-12-07T05:47:52;14.30;;;10.73;;
7193;SDS011;3638;48.820;9.244;2022-12-07T05:50:19;12.87;;;10.80;;
7193;SDS011;3638;48.820;9.244;2022-12-07T05:52:46;13.07;;;10.90;;
7193;SDS011;3638;48.820;9.244;2022-12-07T05:55:13;11.13;;;9.80;;
7193;SDS011;3638;48.820;9.244;2022-12-07T05:57:40;12.90;;;10.27;;
7193;SDS011;3638;48.820;9.244;2022-12-07T06:00:29;13.33;;;10.40;;
7193;SDS011;3638;48.820;9.244;2022-12-07T06:02:55;13.57;;;10.57;;
7193;SDS011;3638;48.820;9.244;2022-12-07T06:05:22;12.10;;;10.57;;
7193;SDS011;3638;48.820;9.244;2022-12-07T06:07:49;16.07;;;11.33;;
7193;SDS011;3638;48.820;9.244;2022-12-07T06:10:16;14.23;;;11.87;;
7193;SDS011;3638;48.820;9.244;2022-12-07T06:12:43;17.40;;;12.60;;
7193;SDS011;3638;48.820;9.244;2022-12-07T06:15:11;17.13;;;12.40;;
7193;SDS011;3638;48.820;9.244;2022-12-07T06:17:40;13.47;;;10.87;;
7193;SDS011;3638;48.820;9.244;2022-12-07T06:20:07;17.03;;;13.03;;
7193;SDS011;3638;48.820;9.244;2022-12-07T06:22:34;16.87;;;12.70;;
7193;SDS011;3638;48.820;9.244;2022-12-07T06:25:02;14.17;;;11.10;;
7193;SDS011;3638;48.820;9.244;2022-12-07T06:27:29;15.60;;;11.77;;
7193;SDS011;3638;48.820;9.244;2022-12-07T06:29:57;13.60;;;11.50;;
7193;SDS011;3638;48.820;9.244;2022-12-07T06:32:24;14.70;;;11.30;;
7193;SDS011;3638;48.820;9.244;2022-12-07T06:34:53;13.40;;;10.70;;
7193;SDS011;3638;48.820;9.244;2022-12-07T06:37:19;12.20;;;10.23;;
7193;SDS011;3638;48.820;9.244;2022-12-07T06:39:46;12.50;;;10.27;;
7193;SDS011;3638;48.820;9.244;2022-12-07T06:42:13;12.30;;;10.27;;
7193;SDS011;3638;48.820;9.244;2022-12-07T06:44:40;13.33;;;10.97;;
7193;SDS011;3638;48.820;9.244;2022-12-07T06:47:07;13.43;;;11.23;;
7193;SDS011;3638;48.820;9.244;2022-12-07T06:49:34;12.73;;;11.37;;
7193;SDS011;3638;48.820;9.244;2022-12-07T06:52:02;14.30;;;10.60;;
7193;SDS011;3638;48.820;9.244;2022-12-07T06:54:30;12.13;;;10.07;;
7193;SDS011;3638;48.820;9.244;2022-12-07T06:56:57;13.63;;;11.23;;
7193;SDS011;3638;48.820;9.244;2022-12-07T06:59:24;13.27;;;10.87;;
7193;SDS011;3638;48.820;9.244;2022-12-07T07:01:51;15.03;;;10.83;;
7193;SDS011;3638;48.820;9.244;2022-12-07T07:04:18;14.33;;;11.17;;
7193;SDS011;3638;48.820;9.244;2022-12-07T07:06:45;12.57;;;10.87;;
7193;SDS011;3638;48.820;9.244;2022-12-07T07:09:13;13.37;;;10.70;;
7193;SDS011;3638;48.820;9.244;2022-12-07T07:11:40;12.37;;;10.70;;
7193;SDS011;3638;48.820;9.244;2022-12-07T07:14:07;12.00;;;10.27;;
7193;SDS011;3638;48.820;9.244;2022-12-07T07:16:34;13.30;;;10.80;;
7193;SDS011;3638;48.820;9.244;2022-12-07T07:19:01;11.87;;;9.67;;
7193;SDS011;3638;48.820;9.244;2022-12-07T07:21:28;13.53;;;10.13;;
7193;SDS011;3638;48.820;9.244;2022-12-07T07:23:55;11.77;;;9.47;;
7193;SDS011;3638;48.820;9.244;2022-12-07T07:26:23;12.03;;;9.83;;
7193;SDS011;3638;48.820;9.244;2022-12-07T07:28:50;10.50;;;9.07;;
7193;SDS011;3638;48.820;9.244;2022-12-07T07:31:17;11.07;;;9.33;;
7193;SDS011;3638;48.820;9.244;2022-12-07T07:33:44;10.03;;;8.60;;
7193;SDS011;3638;48.820;9.244;2022-12-07T07:36:12;11.03;;;8.77;;
7193;SDS011;3638;48.820;9.244;2022-12-07T07:38:38;11.33;;;9.07;;
7193;SDS011;3638;48.820;9.244;2022-12-07T07:41:05;13.07;;;10.03;;
7193;SDS011;3638;48.820;9.244;2022-12-07T07:43:34;18.53;;;12.13;;
7193;SDS011;3638;48.820;9.244;2022-12-07T07:46:01;13.90;;;10.47;;
7193;SDS011;3638;48.820;9.244;2022-12-07T07:48:28;13.57;;;9.40;;
7193;SDS011;3638;48.820;9.244;2022-12-07T07:50:55;12.10;;;9.40;;
7193;SDS011;3638;48.820;9.244;2022-12-07T07:53:22;12.13;;;9.03;;
7193;SDS011;3638;48.820;9.244;2022-12-07T07:55:52;11.47;;;8.50;;
7193;SDS011;3638;48.820;9.244;2022-12-07T07:58:19;12.07;;;9.10;;
7193;SDS011;3638;48.820;9.244;2022-12-07T08:00:48;13.17;;;9.00;;
7193;SDS011;3638;48.820;9.244;2022-12-07T08:03:15;10.80;;;8.37;;
7193;SDS011;3638;48.820;9.244;2022-12-07T08:05:42;10.47;;;8.23;;
7193;SDS011;3638;48.820;9.244;2022-12-07T08:08:08;9.73;;;7.57;;
7193;SDS011;3638;48.820;9.244;2022-12-07T08:10:35;10.23;;;7.40;;
7193;SDS011;3638;48.820;9.244;2022-12-07T08:13:02;10.50;;;7.83;;
7193;SDS011;3638;48.820;9.244;2022-12-07T08:15:40;8.53;;;7.13;;
7193;SDS011;3638;48.820;9.244;2022-12-07T08:18:10;12.40;;;7.03;;
7193;SDS011;3638;48.820;9.244;2022-12-07T08:20:38;8.13;;;7.33;;
7193;SDS011;3638;48.820;9.244;2022-12-07T08:23:07;8.23;;;7.37;;
7193;SDS011;3638;48.820;9.244;2022-12-07T08:25:35;7.70;;;6.90;;
7193;SDS011;3638;48.820;9.244;2022-12-07T08:28:02;9.50;;;7.13;;
7193;SDS011;3638;48.820;9.244;2022-12-07T08:30:30;8.47;;;6.90;;
7193;SDS011;3638;48.820;9.244;2022-12-07T08:32:57;7.37;;;6.37;;
7193;SDS011;3638;48.820;9.244;2022-12-07T08:35:25;8.77;;;6.23;;
7193;SDS011;3638;48.820;9.244;2022-12-07T08:37:52;8.20;;;6.43;;
7193;SDS011;3638;48.820;9.244;2022-12-07T08:40:19;7.67;;;6.57;;
7193;SDS011;3638;48.820;9.244;2022-12-07T08:42:48;7.40;;;6.30;;
7193;SDS011;3638;48.820;9.244;2022-12-07T08:45:16;7.57;;;6.77;;
7193;SDS011;3638;48.820;9.244;2022-12-07T08:47:46;7.30;;;6.43;;
7193;SDS011;3638;48.820;9.244;2022-12-07T08:50:17;8.43;;;6.77;;
7193;SDS011;3638;48.820;9.244;2022-12-07T08:52:46;8.87;;;6.60;;
7193;SDS011;3638;48.820;9.244;2022-12-07T08:55:17;8.37;;;7.23;;
7193;SDS011;3638;48.820;9.244;2022-12-07T08:57:44;8.57;;;7.50;;
7193;SDS011;3638;48.820;9.244;2022-12-07T09:00:12;10.27;;;8.30;;
7193;SDS011;3638;48.820;9.244;2022-12-07T09:02:42;18.90;;;11.80;;
7193;SDS011;3638;48.820;9.244;2022-12-07T09:05:10;12.77;;;8.80;;
7193;SDS011;3638;48.820;9.244;2022-12-07T09:07:36;10.87;;;8.20;;
7193;SDS011;3638;48.820;9.244;2022-12-07T09:10:06;7.87;;;6.80;;
7193;SDS011;3638;48.820;9.244;2022-12-07T09:12:34;6.70;;;6.00;;
7193;SDS011;3638;48.820;9.244;2022-12-07T09:15:00;8.10;;;6.23;;
7193;SDS011;3638;48.820;9.244;2022-12-07T09:17:31;7.60;;;6.80;;
7193;SDS011;3638;48.820;9.244;2022-12-07T09:19:58;8.40;;;6.27;;
7193;SDS011;3638;48.820;9.244;2022-12-07T09:22:28;7.33;;;6.30;;
7193;SDS011;3638;48.820;9.244;2022-12-07T09:24:55;7.33;;;6.03;;
7193;SDS011;3638;48.820;9.244;2022-12-07T09:27:23;7.20;;;6.10;;
7193;SDS011;3638;48.820;9.244;2022-12-07T09:29:50;6.90;;;6.20;;
7193;SDS011;3638;48.820;9.244;2022-12-07T09:32:17;7.77;;;6.00;;
7193;SDS011;3638;48.820;9.244;2022-12-07T09:34:44;7.70;;;6.20;;
7193;SDS011;3638;48.820;9.244;2022-12-07T09:37:11;7.77;;;6.40;;
7193;SDS011;3638;48.820;9.244;2022-12-07T09:39:39;6.90;;;6.00;;
7193;SDS011;3638;48.820;9.244;2022-12-07T09:42:06;8.10;;;5.97;;
7193;SDS011;3638;48.820;9.244;2022-12-07T09:44:39;7.77;;;5.33;;
7193;SDS011;3638;48.820;9.244;2022-12-07T09:47:07;6.47;;;5.67;;
7193;SDS011;3638;48.820;9.244;2022-12-07T09:49:36;7.97;;;5.10;;
7193;SDS011;3638;48.820;9.244;2022-12-07T09:52:03;7.07;;;4.87;;
7193;SDS011;3638;48.820;9.244;2022-12-07T09:54:46;5.30;;;4.80;;
7193;SDS011;3638;48.820;9.244;2022-12-07T09:57:16;5.60;;;4.73;;
7193;SDS011;3638;48.820;9.244;2022-12-07T09:59:45;5.83;;;4.50;;
7193;SDS011;3638;48.820;9.244;2022-12-07T10:02:25;4.50;;;4.10;;
7193;SDS011;3638;48.820;9.244;2022-12-07T10:05:02;5.30;;;4.80;;
7193;SDS011;3638;48.820;9.244;2022-12-07T10:07:32;5.90;;;4.87;;
7193;SDS011;3638;48.820;9.244;2022-12-07T10:09:59;12.57;;;6.53;;
7193;SDS011;3638;48.820;9.244;2022-12-07T10:12:29;18.37;;;14.30;;
7193;SDS011;3638;48.820;9.244;2022-12-07T10:14:59;11.03;;;8.60;;
7193;SDS011;3638;48.820;9.244;2022-12-07T10:17:32;12.27;;;9.97;;
7193;SDS011;3638;48.820;9.244;2022-12-07T10:22:58;6.30;;;5.47;;
7193;SDS011;3638;48.820;9.244;2022-12-07T10:25:30;6.90;;;6.07;;
7193;SDS011;3638;48.820;9.244;2022-12-07T10:30:50;6.53;;;5.83;;
7193;SDS011;3638;48.820;9.244;2022-12-07T10:33:27;11.00;;;6.93;;
7193;SDS011;3638;48.820;9.244;2022-12-07T10:35:58;6.50;;;4.70;;
7193;SDS011;3638;48.820;9.244;2022-12-07T10:38:25;5.33;;;4.83;;
7193;SDS011;3638;48.820;9.244;2022-12-07T10:41:02;5.07;;;4.67;;
7193;SDS011;3638;48.820;9.244;2022-12-07T10:43:31;7.13;;;5.27;;
7193;SDS011;3638;48.820;9.244;2022-12-07T10:52:26;5.30;;;4.77;;
7193;SDS011;3638;48.820;9.244;2022-12-07T10:55:14;5.60;;;5.10;;
7193;SDS011;3638;48.820;9.244;2022-12-07T10:57:55;7.20;;;5.87;;
7193;SDS011;3638;48.820;9.244;2022-12-07T11:00:45;5.63;;;4.90;;
7193;SDS011;3638;48.820;9.244;2022-12-07T11:03:25;5.63;;;5.07;;
7193;SDS011;3638;48.820;9.244;2022-12-07T11:06:07;5.90;;;5.30;;
7193;SDS011;3638;48.820;9.244;2022-12-07T11:08:51;6.67;;;4.90;;
7193;SDS011;3638;48.820;9.244;2022-12-07T11:11:57;6.50;;;5.40;;
7193;SDS011;3638;48.820;9.244;2022-12-07T11:14:36;5.57;;;5.07;;
7193;SDS011;3638;48.820;9.244;2022-12-07T11:17:10;6.80;;;5.00;;
7193;SDS011;3638;48.820;9.244;2022-12-07T11:19:51;7.07;;;5.70;;
7193;SDS011;3638;48.820;9.244;2022-12-07T11:22:33;6.37;;;5.40;;
7193;SDS011;3638;48.820;9.244;2022-12-07T11:25:14;5.60;;;4.90;;
7193;SDS011;3638;48.820;9.244;2022-12-07T11:27:53;6.50;;;4.67;;
7193;SDS011;3638;48.820;9.244;2022-12-07T11:30:36;5.33;;;4.43;;
7193;SDS011;3638;48.820;9.244;2022-12-07T11:33:11;6.23;;;4.60;;
7193;SDS011;3638;48.820;9.244;2022-12-07T11:35:49;5.23;;;4.67;;
7193;SDS011;3638;48.820;9.244;2022-12-07T11:38:32;4.20;;;3.80;;
7193;SDS011;3638;48.820;9.244;2022-12-07T11:41:08;4.23;;;3.63;;
7193;SDS011;3638;48.820;9.244;2022-12-07T11:43:42;5.43;;;4.93;;
7193;SDS011;3638;48.820;9.244;2022-12-07T11:46:20;7.57;;;4.80;;
7193;SDS011;3638;48.820;9.244;2022-12-07T11:48:53;6.00;;;5.23;;
7193;SDS011;3638;48.820;9.244;2022-12-07T11:51:31;6.20;;;5.10;;
7193;SDS011;3638;48.820;9.244;2022-12-07T11:54:03;6.43;;;5.73;;
7193;SDS011;3638;48.820;9.244;2022-12-07T11:56:38;7.20;;;5.40;;
7193;SDS011;3638;48.820;9.244;2022-12-07T11:59:07;6.80;;;6.00;;
7193;SDS011;3638;48.820;9.244;2022-12-07T12:01:42;8.03;;;6.63;;
7193;SDS011;3638;48.820;9.244;2022-12-07T12:04:23;7.47;;;6.70;;
7193;SDS011;3638;48.820;9.244;2022-12-07T12:06:58;7.67;;;6.87;;
7193;SDS011;3638;48.820;9.244;2022-12-07T12:09:26;8.90;;;7.33;;
7193;SDS011;3638;48.820;9.244;2022-12-07T12:12:02;8.23;;;7.17;;
7193;SDS011;3638;48.820;9.244;2022-12-07T12:14:54;9.00;;;7.57;;
7193;SDS011;3638;48.820;9.244;2022-12-07T12:17:38;9.07;;;7.57;;
7193;SDS011;3638;48.820;9.244;2022-12-07T12:20:40;10.30;;;7.40;;
7193;SDS011;3638;48.820;9.244;2022-12-07T12:23:13;8.97;;;6.80;;
7193;SDS011;3638;48.820;9.244;2022-12-07T12:25:45;8.40;;;7.53;;
7193;SDS011;3638;48.820;9.244;2022-12-07T12:28:18;9.23;;;7.77;;
7193;SDS011;3638;48.820;9.244;2022-12-07T12:31:04;8.50;;;7.60;;
7193;SDS011;3638;48.820;9.244;2022-12-07T12:33:35;7.80;;;7.00;;
7193;SDS011;3638;48.820;9.244;2022-12-07T12:36:16;6.97;;;6.27;;
7193;SDS011;3638;48.820;9.244;2022-12-07T12:38:49;8.00;;;6.47;;
7193;SDS011;3638;48.820;9.244;2022-12-07T12:41:51;8.93;;;6.87;;
7193;SDS011;3638;48.820;9.244;2022-12-07T12:44:40;8.60;;;6.60;;
7193;SDS011;3638;48.820;9.244;2022-12-07T12:47:40;7.27;;;6.57;;
7193;SDS011;3638;48.820;9.244;2022-12-07T12:50:11;8.30;;;6.93;;
7193;SDS011;3638;48.820;9.244;2022-12-07T12:53:00;9.33;;;7.87;;
7193;SDS011;3638;48.820;9.244;2022-12-07T12:55:46;9.40;;;6.50;;
7193;SDS011;3638;48.820;9.244;2022-12-07T12:58:35;9.13;;;6.83;;
7193;SDS011;3638;48.820;9.244;2022-12-07T13:01:36;8.00;;;6.43;;
7193;SDS011;3638;48.820;9.244;2022-12-07T13:04:23;6.97;;;6.33;;
7193;SDS011;3638;48.820;9.244;2022-12-07T13:07:10;7.30;;;5.50;;
7193;SDS011;3638;48.820;9.244;2022-12-07T13:09:42;6.17;;;5.57;;
7193;SDS011;3638;48.820;9.244;2022-12-07T13:12:14;8.33;;;6.50;;
7193;SDS011;3638;48.820;9.244;2022-12-07T13:14:52;8.67;;;6.03;;
7193;SDS011;3638;48.820;9.244;2022-12-07T13:20:43;7.13;;;6.43;;
7193;SDS011;3638;48.820;9.244;2022-12-07T13:23:18;7.73;;;6.57;;
7193;SDS011;3638;48.820;9.244;2022-12-07T13:28:44;7.20;;;6.50;;
7193;SDS011;3638;48.820;9.244;2022-12-07T13:31:14;7.90;;;7.10;;
7193;SDS011;3638;48.820;9.244;2022-12-07T13:33:49;7.13;;;6.43;;
7193;SDS011;3638;48.820;9.244;2022-12-07T13:36:18;7.63;;;6.93;;
7193;SDS011;3638;48.820;9.244;2022-12-07T13:38:49;9.70;;;6.90;;
7193;SDS011;3638;48.820;9.244;2022-12-07T13:41:19;8.43;;;6.67;;
7193;SDS011;3638;48.820;9.244;2022-12-07T13:43:51;9.37;;;6.47;;
7193;SDS011;3638;48.820;9.244;2022-12-07T13:46:26;7.10;;;6.40;;
7193;SDS011;3638;48.820;9.244;2022-12-07T13:49:19;8.67;;;7.43;;
7193;SDS011;3638;48.820;9.244;2022-12-07T13:51:49;9.10;;;6.80;;
7193;SDS011;3638;48.820;9.244;2022-12-07T13:54:16;8.83;;;7.70;;
7193;SDS011;3638;48.820;9.244;2022-12-07T13:56:47;8.97;;;7.87;;
7193;SDS011;3638;48.820;9.244;2022-12-07T13:59:18;10.10;;;7.87;;
7193;SDS011;3638;48.820;9.244;2022-12-07T14:01:48;11.03;;;7.90;;
7193;SDS011;3638;48.820;9.244;2022-12-07T14:04:26;11.43;;;8.00;;
7193;SDS011;3638;48.820;9.244;2022-12-07T14:06:59;10.43;;;8.43;;
7193;SDS011;3638;48.820;9.244;2022-12-07T14:09:27;10.57;;;7.73;;
7193;SDS011;3638;48.820;9.244;2022-12-07T14:11:56;9.73;;;7.27;;
7193;SDS011;3638;48.820;9.244;2022-12-07T14:14:26;10.50;;;8.03;;
7193;SDS011;3638;48.820;9.244;2022-12-07T14:17:01;9.73;;;7.07;;
7193;SDS011;3638;48.820;9.244;2022-12-07T14:22:26;14.87;;;10.17;;
7193;SDS011;3638;48.820;9.244;2022-12-07T14:27:49;10.50;;;8.60;;
7193;SDS011;3638;48.820;9.244;2022-12-07T14:30:22;8.93;;;7.27;;
7193;SDS011;3638;48.820;9.244;2022-12-07T14:32:53;7.87;;;7.03;;
7193;SDS011;3638;48.820;9.244;2022-12-07T14:35:23;7.87;;;7.07;;
7193;SDS011;3638;48.820;9.244;2022-12-07T14:37:50;8.87;;;7.27;;
7193;SDS011;3638;48.820;9.244;2022-12-07T14:40:19;8.57;;;7.30;;
7193;SDS011;3638;48.820;9.244;2022-12-07T14:42:48;9.17;;;7.50;;
7193;SDS011;3638;48.820;9.244;2022-12-07T14:45:19;8.60;;;7.23;;
7193;SDS011;3638;48.820;9.244;2022-12-07T14:47:48;9.17;;;7.43;;
7193;SDS011;3638;48.820;9.244;2022-12-07T14:50:16;10.40;;;8.50;;
7193;SDS011;3638;48.820;9.244;2022-12-07T14:52:46;9.27;;;7.30;;
7193;SDS011;3638;48.820;9.244;2022-12-07T14:55:17;8.97;;;8.07;;
7193;SDS011;3638;48.820;9.244;2022-12-07T14:57:49;9.77;;;8.33;;
7193;SDS011;3638;48.820;9.244;2022-12-07T15:00:16;9.83;;;7.87;;
7193;SDS011;3638;48.820;9.244;2022-12-07T15:02:47;10.03;;;8.27;;
7193;SDS011;3638;48.820;9.244;2022-12-07T15:05:15;10.63;;;8.40;;
7193;SDS011;3638;48.820;9.244;2022-12-07T15:07:43;10.27;;;8.33;;
7193;SDS011;3638;48.820;9.244;2022-12-07T15:10:13;12.03;;;8.63;;
7193;SDS011;3638;48.820;9.244;2022-12-07T15:12:43;8.83;;;7.93;;
7193;SDS011;3638;48.820;9.244;2022-12-07T15:15:11;11.07;;;9.00;;
7193;SDS011;3638;48.820;9.244;2022-12-07T15:17:38;10.77;;;8.47;;
7193;SDS011;3638;48.820;9.244;2022-12-07T15:20:07;10.43;;;8.63;;
7193;SDS011;3638;48.820;9.244;2022-12-07T15:22:38;11.23;;;9.23;;
7193;SDS011;3638;48.820;9.244;2022-12-07T15:25:05;11.60;;;9.03;;
7193;SDS011;3638;48.820;9.244;2022-12-07T15:27:33;15.13;;;10.63;;
7193;SDS011;3638;48.820;9.244;2022-12-07T15:30:00;12.53;;;10.27;;
7193;SDS011;3638;48.820;9.244;2022-12-07T15:32:27;14.00;;;10.20;;
7193;SDS011;3638;48.820;9.244;2022-12-07T15:34:54;13.90;;;10.53;;
7193;SDS011;3638;48.820;9.244;2022-12-07T15:37:22;13.33;;;10.03;;
7193;SDS011;3638;48.820;9.244;2022-12-07T15:39:49;13.63;;;10.63;;
7193;SDS011;3638;48.820;9.244;2022-12-07T15:42:16;15.83;;;11.10;;
7193;SDS011;3638;48.820;9.244;2022-12-07T15:44:43;15.37;;;10.80;;
7193;SDS011;3638;48.820;9.244;2022-12-07T15:47:28;13.07;;;9.27;;
7193;SDS011;3638;48.820;9.244;2022-12-07T15:49:55;14.60;;;10.03;;
7193;SDS011;3638;48.820;9.244;2022-12-07T15:52:23;12.30;;;9.30;;